createdAt,value
2022-11-07T00:01:49.727Z,100564.44
2022-11-07T00:04:17.354Z,100569.13
2022-11-07T00:06:44.866Z,100570.00
2022-11-07T00:09:12.938Z,100571.25
2022-11-07T00:11:40.483Z,100572.28
2022-11-07T00:14:08.038Z,100560.22
2022-11-07T00:16:35.511Z,100553.63
2022-11-07T00:19:03.136Z,100550.34
2022-11-07T00:21:30.678Z,100555.19
2022-11-07T00:23:58.339Z,100552.63
2022-11-07T00:26:26.046Z,100558.09
2022-11-07T00:28:53.547Z,100554.19
2022-11-07T00:31:21.034Z,100552.69
2022-11-07T00:33:48.544Z,100553.28
2022-11-07T00:36:24.060Z,100558.47
2022-11-07T00:38:51.748Z,100554.06
2022-11-07T00:41:19.999Z,100550.09
2022-11-07T00:43:47.919Z,100553.91
2022-11-07T00:46:16.866Z,100553.03
2022-11-07T00:48:44.341Z,100553.47
2022-11-07T00:51:18.053Z,100538.13
2022-11-07T00:53:46.136Z,100535.31
2022-11-07T00:56:16.310Z,100536.47
2022-11-07T00:58:44.502Z,100527.75
2022-11-07T01:01:17.884Z,100517.59
2022-11-07T01:04:04.300Z,100523.78
2022-11-07T01:06:34.157Z,100518.97
2022-11-07T01:09:01.751Z,100514.19
2022-11-07T01:11:30.464Z,100512.94
2022-11-07T01:14:00.244Z,100502.28
2022-11-07T01:16:29.580Z,100501.50
2022-11-07T01:18:57.555Z,100496.06
2022-11-07T01:21:24.995Z,100502.00
2022-11-07T01:23:52.469Z,100498.09
2022-11-07T01:26:20.107Z,100494.19
2022-11-07T01:28:47.709Z,100488.72
2022-11-07T01:31:17.707Z,100491.38
2022-11-07T01:33:45.582Z,100488.56
2022-11-07T01:36:18.765Z,100485.50
2022-11-07T01:38:50.662Z,100481.03
2022-11-07T01:41:26.700Z,100471.75
2022-11-07T01:44:06.458Z,100480.16
2022-11-07T01:46:38.201Z,100483.63
2022-11-07T01:49:15.745Z,100487.28
2022-11-07T01:51:55.084Z,100482.31
2022-11-07T01:54:26.949Z,100484.97
2022-11-07T01:56:57.958Z,100483.75
2022-11-07T01:59:28.206Z,100480.44
2022-11-07T02:01:56.287Z,100473.72
2022-11-07T02:04:27.834Z,100468.09
2022-11-07T02:07:02.048Z,100478.09
2022-11-07T02:09:29.575Z,100466.00
2022-11-07T02:12:01.081Z,100469.28
2022-11-07T02:14:29.957Z,100473.84
2022-11-07T02:16:57.780Z,100473.06
2022-11-07T02:19:31.000Z,100481.94
2022-11-07T02:22:43.148Z,100464.50
2022-11-07T02:25:14.460Z,100465.84
2022-11-07T02:27:43.337Z,100462.44
2022-11-07T02:30:15.981Z,100468.53
2022-11-07T02:32:43.658Z,100459.56
2022-11-07T02:35:38.812Z,100457.84
2022-11-07T02:38:44.544Z,100458.50
2022-11-07T02:41:16.616Z,100454.22
2022-11-07T02:43:52.897Z,100446.38
2022-11-07T02:46:22.752Z,100447.78
2022-11-07T02:48:54.188Z,100452.25
2022-11-07T02:51:21.749Z,100442.09
2022-11-07T02:53:49.332Z,100445.41
2022-11-07T02:56:17.585Z,100446.09
2022-11-07T02:58:45.748Z,100446.00
2022-11-07T03:01:13.814Z,100449.03
2022-11-07T03:03:43.685Z,100453.88
2022-11-07T03:06:15.232Z,100450.59
2022-11-07T03:08:46.455Z,100439.16
2022-11-07T03:11:14.530Z,100440.63
2022-11-07T03:13:42.093Z,100435.19
2022-11-07T03:16:11.528Z,100430.47
2022-11-07T03:18:39.392Z,100439.44
2022-11-07T03:21:07.722Z,100430.16
2022-11-07T03:23:36.337Z,100433.69
2022-11-07T03:26:04.799Z,100436.47
2022-11-07T03:28:32.971Z,100429.88
2022-11-07T03:31:02.342Z,100421.81
2022-11-07T03:33:30.904Z,100421.00
2022-11-07T03:35:58.729Z,100424.31
2022-11-07T03:38:26.208Z,100422.09
2022-11-07T03:40:53.727Z,100417.16
2022-11-07T03:43:21.204Z,100424.03
2022-11-07T03:45:48.736Z,100419.47
2022-11-07T03:48:16.247Z,100423.88
2022-11-07T03:50:43.899Z,100419.06
2022-11-07T03:53:11.358Z,100422.47
2022-11-07T03:55:40.816Z,100432.06
2022-11-07T03:58:08.322Z,100428.94
2022-11-07T04:00:36.160Z,100430.38
2022-11-07T04:03:04.643Z,100425.72
2022-11-07T04:05:32.238Z,100433.91
2022-11-07T04:07:59.813Z,100430.28
2022-11-07T04:10:27.249Z,100424.63
2022-11-07T04:13:13.713Z,100427.16
2022-11-07T04:16:02.047Z,100421.22
2022-11-07T04:18:31.955Z,100432.56
2022-11-07T04:20:59.452Z,100435.84
2022-11-07T04:23:26.959Z,100429.31
2022-11-07T04:26:13.030Z,100431.75
2022-11-07T04:28:43.055Z,100422.84
2022-11-07T04:31:10.736Z,100430.97
2022-11-07T04:33:38.140Z,100419.84
2022-11-07T04:36:05.804Z,100422.38
2022-11-07T04:38:33.319Z,100426.31
2022-11-07T04:41:00.766Z,100424.66
2022-11-07T04:43:28.714Z,100433.75
2022-11-07T04:45:56.247Z,100428.34
2022-11-07T04:48:23.880Z,100428.81
2022-11-07T04:50:51.628Z,100429.81
2022-11-07T04:53:19.120Z,100433.13
2022-11-07T04:55:46.891Z,100431.09
2022-11-07T04:58:14.416Z,100425.03
2022-11-07T05:00:42.138Z,100422.72
2022-11-07T05:03:10.006Z,100429.69
2022-11-07T05:05:37.591Z,100418.78
2022-11-07T05:08:05.671Z,100415.25
2022-11-07T05:10:33.151Z,100419.75
2022-11-07T05:13:00.827Z,100409.09
2022-11-07T05:15:28.322Z,100417.16
2022-11-07T05:17:55.775Z,100414.59
2022-11-07T05:20:37.700Z,100418.38
2022-11-07T05:23:12.821Z,100420.94
2022-11-07T05:25:49.695Z,100416.84
2022-11-07T05:28:31.239Z,100414.75
2022-11-07T05:31:04.950Z,100419.38
2022-11-07T05:33:32.941Z,100415.75
2022-11-07T05:36:18.181Z,100420.53
2022-11-07T05:38:48.657Z,100429.03
2022-11-07T05:41:18.519Z,100429.81
2022-11-07T05:43:46.426Z,100433.06
2022-11-07T05:46:14.454Z,100427.06
2022-11-07T05:48:42.035Z,100417.81
2022-11-07T05:51:09.486Z,100423.91
2022-11-07T05:53:37.117Z,100422.44
2022-11-07T05:56:04.807Z,100429.00
2022-11-07T05:58:32.377Z,100430.53
2022-11-07T06:01:05.275Z,100427.13
2022-11-07T06:03:34.035Z,100430.91
2022-11-07T06:06:01.490Z,100421.16
2022-11-07T06:08:31.246Z,100437.28
2022-11-07T06:10:58.754Z,100418.59
2022-11-07T06:13:26.288Z,100431.09
2022-11-07T06:15:53.766Z,100421.81
2022-11-07T06:18:21.646Z,100426.91
2022-11-07T06:20:49.883Z,100427.69
2022-11-07T06:23:18.204Z,100441.16
2022-11-07T06:25:46.080Z,100445.63
2022-11-07T06:28:14.846Z,100443.97
2022-11-07T06:30:44.176Z,100444.28
2022-11-07T06:33:15.353Z,100436.47
2022-11-07T06:35:43.892Z,100445.09
2022-11-07T06:38:13.607Z,100445.53
2022-11-07T06:40:42.782Z,100435.81
2022-11-07T06:43:14.918Z,100441.56
2022-11-07T06:45:43.979Z,100437.78
2022-11-07T06:48:12.756Z,100437.03
2022-11-07T06:50:40.686Z,100432.59
2022-11-07T06:53:10.612Z,100431.94
2022-11-07T06:55:38.872Z,100424.09
2022-11-07T06:58:06.888Z,100416.13
2022-11-07T07:00:37.608Z,100421.88
2022-11-07T07:03:05.551Z,100423.22
2022-11-07T07:05:34.097Z,100423.94
2022-11-07T07:08:02.218Z,100419.66
2022-11-07T07:10:30.051Z,100410.34
2022-11-07T07:12:57.704Z,100417.25
2022-11-07T07:15:25.452Z,100418.88
2022-11-07T07:17:53.051Z,100412.81
2022-11-07T07:20:23.114Z,100419.84
2022-11-07T07:22:57.871Z,100415.78
2022-11-07T07:25:27.875Z,100421.63
2022-11-07T07:27:55.579Z,100421.19
2022-11-07T07:30:25.486Z,100414.06
2022-11-07T07:32:53.008Z,100416.72
2022-11-07T07:35:22.016Z,100423.69
2022-11-07T07:37:52.707Z,100420.47
2022-11-07T07:40:20.573Z,100422.34
2022-11-07T07:42:48.398Z,100417.16
2022-11-07T07:45:16.786Z,100420.34
2022-11-07T07:47:44.615Z,100426.56
2022-11-07T07:50:13.085Z,100424.66
2022-11-07T07:52:41.107Z,100415.78
2022-11-07T07:55:10.221Z,100419.75
2022-11-07T07:57:44.635Z,100420.06
2022-11-07T08:00:12.712Z,100424.47
2022-11-07T08:02:43.742Z,100426.56
2022-11-07T08:05:13.110Z,100416.59
2022-11-07T08:07:48.404Z,100417.00
2022-11-07T08:13:04.971Z,100410.63
2022-11-07T08:15:32.463Z,100402.25
2022-11-07T08:18:04.189Z,100397.25
2022-11-07T08:20:31.967Z,100397.34
2022-11-07T08:23:14.559Z,100400.75
2022-11-07T08:25:50.205Z,100403.47
2022-11-07T08:28:17.976Z,100394.63
2022-11-07T08:30:45.590Z,100396.72
2022-11-07T08:33:13.427Z,100396.09
2022-11-07T08:35:42.651Z,100402.59
2022-11-07T08:38:10.496Z,100409.38
2022-11-07T08:40:38.570Z,100414.13
2022-11-07T08:43:06.190Z,100405.84
2022-11-07T08:45:33.677Z,100403.84
2022-11-07T08:48:01.197Z,100408.81
2022-11-07T08:50:28.740Z,100398.31
2022-11-07T08:53:02.163Z,100401.38
2022-11-07T08:55:30.806Z,100397.69
2022-11-07T08:58:00.306Z,100400.94
2022-11-07T09:00:28.917Z,100401.53
2022-11-07T09:03:24.349Z,100394.09
2022-11-07T09:05:43.930Z,100398.63
2022-11-07T09:08:11.531Z,100399.59
2022-11-07T09:10:39.062Z,100403.91
2022-11-07T09:13:06.637Z,100411.66
2022-11-07T09:15:34.258Z,100399.50
2022-11-07T09:18:06.160Z,100402.34
2022-11-07T09:20:33.878Z,100394.94
2022-11-07T09:23:01.393Z,100396.50
2022-11-07T09:25:29.314Z,100397.38
2022-11-07T09:27:56.791Z,100398.16
2022-11-07T09:30:26.319Z,100401.47
2022-11-07T09:32:55.643Z,100399.94
2022-11-07T09:35:23.601Z,100392.84
2022-11-07T09:37:51.387Z,100396.38
2022-11-07T09:40:40.627Z,100394.97
2022-11-07T09:43:21.136Z,100384.53
2022-11-07T09:46:02.233Z,100388.97
2022-11-07T09:48:38.917Z,100381.31
2022-11-07T09:51:13.934Z,100385.72
2022-11-07T09:53:46.332Z,100380.44
2022-11-07T09:56:15.777Z,100382.47
2022-11-07T09:58:54.598Z,100380.28
2022-11-07T10:01:22.772Z,100388.56
2022-11-07T10:04:22.894Z,100384.50
2022-11-07T10:06:49.394Z,100391.53
2022-11-07T10:09:22.218Z,100393.13
2022-11-07T10:12:26.794Z,100392.06
2022-11-07T10:15:07.333Z,100375.13
2022-11-07T10:17:54.557Z,100380.22
2022-11-07T10:20:40.816Z,100369.31
2022-11-07T10:23:41.492Z,100375.09
2022-11-07T10:26:11.604Z,100380.31
2022-11-07T10:29:01.265Z,100378.28
2022-11-07T10:31:36.260Z,100375.31
2022-11-07T10:34:12.781Z,100370.81
2022-11-07T10:36:40.504Z,100360.31
2022-11-07T10:39:19.351Z,100368.78
2022-11-07T10:42:09.252Z,100355.75
2022-11-07T10:44:40.508Z,100366.94
2022-11-07T10:47:23.314Z,100357.72
2022-11-07T10:50:18.950Z,100361.56
2022-11-07T10:53:00.723Z,100356.47
2022-11-07T10:55:31.586Z,100358.16
2022-11-07T10:58:06.262Z,100362.56
2022-11-07T11:00:39.685Z,100361.22
2022-11-07T11:03:28.988Z,100367.78
2022-11-07T11:06:24.025Z,100368.69
2022-11-07T11:08:53.155Z,100362.28
2022-11-07T11:11:36.151Z,100364.47
2022-11-07T11:14:16.653Z,100360.19
2022-11-07T11:16:44.382Z,100354.84
2022-11-07T11:19:31.134Z,100354.84
2022-11-07T11:21:59.147Z,100356.34
2022-11-07T11:24:32.793Z,100362.13
2022-11-07T11:27:09.351Z,100358.34
2022-11-07T11:29:40.060Z,100357.47
2022-11-07T11:32:17.203Z,100363.97
2022-11-07T11:34:53.412Z,100349.31
2022-11-07T11:37:23.094Z,100351.13
2022-11-07T11:40:16.646Z,100349.75
2022-11-07T11:43:00.635Z,100358.97
2022-11-07T11:45:37.285Z,100347.03
2022-11-07T11:48:15.758Z,100355.47
2022-11-07T11:50:54.998Z,100350.97
2022-11-07T11:53:23.337Z,100353.25
2022-11-07T11:56:09.136Z,100346.78
2022-11-07T11:58:46.511Z,100345.63
2022-11-07T12:01:32.423Z,100340.97
2022-11-07T12:04:41.590Z,100345.56
2022-11-07T12:07:19.911Z,100345.41
2022-11-07T12:10:06.782Z,100346.28
2022-11-07T12:12:57.497Z,100342.66
2022-11-07T12:16:09.008Z,100348.81
2022-11-07T12:18:44.883Z,100331.78
2022-11-07T12:21:45.895Z,100334.66
2022-11-07T12:24:27.600Z,100348.94
2022-11-07T12:27:16.752Z,100334.38
2022-11-07T12:30:05.939Z,100330.91
2022-11-07T12:32:54.227Z,100332.94
2022-11-07T12:35:51.020Z,100319.91
2022-11-07T12:38:40.220Z,100328.44
2022-11-07T12:41:24.416Z,100331.06
2022-11-07T12:44:04.924Z,100320.56
2022-11-07T12:46:41.387Z,100321.59
2022-11-07T12:49:55.756Z,100323.25
2022-11-07T12:52:44.101Z,100333.00
2022-11-07T12:55:25.903Z,100324.81
2022-11-07T12:57:55.749Z,100326.16
2022-11-07T13:00:30.192Z,100319.75
2022-11-07T13:03:10.091Z,100326.84
2022-11-07T13:05:43.954Z,100333.69
2022-11-07T13:08:35.780Z,100329.28
2022-11-07T13:11:32.006Z,100327.28
2022-11-07T13:14:53.613Z,100326.25
2022-11-07T13:17:27.884Z,100331.06
2022-11-07T13:20:03.793Z,100327.81
2022-11-07T13:22:33.400Z,100330.53
2022-11-07T13:25:16.970Z,100325.63
2022-11-07T13:27:59.350Z,100320.69
2022-11-07T13:30:38.204Z,100326.31
2022-11-07T13:33:07.376Z,100323.22
2022-11-07T13:35:37.564Z,100318.94
2022-11-07T13:38:18.388Z,100326.06
2022-11-07T13:40:52.861Z,100332.91
2022-11-07T13:43:35.518Z,100326.06
2022-11-07T13:46:06.526Z,100330.91
2022-11-07T13:48:50.840Z,100329.38
2022-11-07T13:51:39.907Z,100334.13
2022-11-07T13:54:27.746Z,100333.16
2022-11-07T13:56:57.297Z,100328.06
2022-11-07T13:59:24.822Z,100334.19
2022-11-07T14:01:56.226Z,100332.28
2022-11-07T14:04:27.584Z,100327.44
2022-11-07T14:07:02.536Z,100327.53
2022-11-07T14:09:31.931Z,100318.03
2022-11-07T14:11:59.510Z,100319.91
2022-11-07T14:14:29.435Z,100317.91
2022-11-07T14:17:00.503Z,100325.25
2022-11-07T14:19:30.416Z,100326.56
2022-11-07T14:21:58.099Z,100322.34
2022-11-07T14:24:27.780Z,100317.66
2022-11-07T14:27:03.883Z,100310.38
2022-11-07T14:29:32.384Z,100319.56
2022-11-07T14:32:02.319Z,100310.38
2022-11-07T14:34:30.080Z,100313.59
2022-11-07T14:37:00.648Z,100313.09
2022-11-07T14:39:31.024Z,100313.25
2022-11-07T14:42:04.460Z,100320.19
2022-11-07T14:44:53.914Z,100319.84
2022-11-07T14:47:26.436Z,100314.84
2022-11-07T14:49:54.824Z,100324.94
2022-11-07T14:52:24.418Z,100312.41
2022-11-07T14:55:03.240Z,100318.50
2022-11-07T14:57:34.626Z,100315.81
2022-11-07T15:00:06.569Z,100304.78
2022-11-07T15:02:35.273Z,100309.66
2022-11-07T15:05:10.723Z,100308.69
2022-11-07T15:07:47.729Z,100307.28
2022-11-07T15:10:29.774Z,100307.03
2022-11-07T15:13:01.284Z,100302.94
2022-11-07T15:15:34.693Z,100297.28
2022-11-07T15:18:05.609Z,100296.41
2022-11-07T15:20:36.067Z,100299.63
2022-11-07T15:23:14.058Z,100292.00
2022-11-07T15:25:53.226Z,100292.63
2022-11-07T15:28:30.787Z,100300.25
2022-11-07T15:30:59.777Z,100297.50
2022-11-07T15:33:32.394Z,100295.44
2022-11-07T15:36:01.864Z,100289.66
2022-11-07T15:38:30.147Z,100289.22
2022-11-07T15:40:58.093Z,100297.63
2022-11-07T15:43:25.772Z,100293.09
2022-11-07T15:45:53.815Z,100297.50
2022-11-07T15:48:23.992Z,100295.28
2022-11-07T15:50:51.947Z,100291.25
2022-11-07T15:53:22.874Z,100288.34
2022-11-07T15:55:59.037Z,100297.00
2022-11-07T15:58:29.327Z,100297.91
2022-11-07T16:00:58.747Z,100290.44
2022-11-07T16:03:28.137Z,100293.97
2022-11-07T16:05:59.088Z,100291.94
2022-11-07T16:08:26.801Z,100282.66
2022-11-07T16:10:57.227Z,100287.38
2022-11-07T16:13:25.224Z,100293.56
2022-11-07T16:16:03.250Z,100285.44
2022-11-07T16:18:38.035Z,100282.13
2022-11-07T16:21:06.042Z,100272.94
2022-11-07T16:23:33.722Z,100262.97
2022-11-07T16:26:01.621Z,100265.59
2022-11-07T16:28:34.692Z,100270.53
2022-11-07T16:31:04.800Z,100250.56
2022-11-07T16:33:32.535Z,100263.94
2022-11-07T16:36:03.413Z,100255.75
2022-11-07T16:38:35.464Z,100251.72
2022-11-07T16:41:03.389Z,100252.94
2022-11-07T16:43:35.244Z,100251.84
2022-11-07T16:46:04.777Z,100254.97
2022-11-07T16:48:32.556Z,100244.28
2022-11-07T16:51:00.036Z,100245.06
2022-11-07T16:53:27.601Z,100250.00
2022-11-07T16:56:00.899Z,100242.78
2022-11-07T16:58:33.228Z,100244.94
2022-11-07T17:01:05.318Z,100248.66
2022-11-07T17:03:33.619Z,100244.34
2022-11-07T17:06:02.596Z,100247.28
2022-11-07T17:08:38.027Z,100250.34
2022-11-07T17:11:06.515Z,100248.88
2022-11-07T17:13:34.364Z,100250.34
2022-11-07T17:16:02.136Z,100243.38
2022-11-07T17:18:29.629Z,100238.97
2022-11-07T17:20:57.231Z,100240.06
2022-11-07T17:23:29.950Z,100241.81
2022-11-07T17:26:00.362Z,100238.59
2022-11-07T17:28:28.041Z,100236.25
2022-11-07T17:30:55.536Z,100236.66
2022-11-07T17:33:23.055Z,100244.00
2022-11-07T17:35:54.990Z,100243.56
2022-11-07T17:38:22.512Z,100233.09
2022-11-07T17:40:50.059Z,100242.69
2022-11-07T17:43:17.796Z,100238.25
2022-11-07T17:45:45.351Z,100239.72
2022-11-07T17:48:12.838Z,100235.69
2022-11-07T17:50:40.512Z,100237.38
2022-11-07T17:53:08.020Z,100237.38
2022-11-07T17:55:35.750Z,100224.72
2022-11-07T17:58:04.226Z,100224.19
2022-11-07T18:00:34.492Z,100229.81
2022-11-07T18:03:02.165Z,100235.03
2022-11-07T18:05:34.868Z,100223.75
2022-11-07T18:08:03.182Z,100220.25
2022-11-07T18:10:30.947Z,100216.72
2022-11-07T18:12:58.838Z,100221.13
2022-11-07T18:15:26.470Z,100206.91
2022-11-07T18:17:54.146Z,100217.38
2022-11-07T18:20:21.639Z,100223.16
2022-11-07T18:22:49.104Z,100218.97
2022-11-07T18:25:16.658Z,100217.81
2022-11-07T18:27:44.118Z,100207.31
2022-11-07T18:30:12.271Z,100209.94
2022-11-07T18:32:39.790Z,100208.09
2022-11-07T18:35:07.426Z,100223.44
2022-11-07T18:37:34.985Z,100218.88
2022-11-07T18:40:02.504Z,100220.91
2022-11-07T18:42:31.479Z,100210.09
2022-11-07T18:44:59.003Z,100203.53
2022-11-07T18:47:28.712Z,100214.81
2022-11-07T18:49:57.434Z,100207.56
2022-11-07T18:52:25.216Z,100198.53
2022-11-07T18:54:52.723Z,100191.78
2022-11-07T18:57:20.623Z,100195.69
2022-11-07T18:59:48.151Z,100193.81
2022-11-07T19:02:17.290Z,100200.19
2022-11-07T19:04:44.990Z,100192.47
2022-11-07T19:07:12.522Z,100189.81
2022-11-07T19:09:40.040Z,100183.88
2022-11-07T19:12:07.782Z,100190.81
2022-11-07T19:14:35.412Z,100194.91
2022-11-07T19:17:02.944Z,100188.94
2022-11-07T19:19:30.578Z,100193.03
2022-11-07T19:21:58.104Z,100181.88
2022-11-07T19:24:25.542Z,100188.63
2022-11-07T19:26:53.040Z,100187.66
2022-11-07T19:29:20.470Z,100193.81
2022-11-07T19:31:48.061Z,100198.69
2022-11-07T19:34:18.197Z,100188.09
2022-11-07T19:36:45.981Z,100187.81
2022-11-07T19:39:13.580Z,100186.44
2022-11-07T19:41:41.196Z,100192.41
2022-11-07T19:44:08.770Z,100191.94
2022-11-07T19:46:36.788Z,100185.78
2022-11-07T19:49:04.239Z,100184.50
2022-11-07T19:51:31.899Z,100191.50
2022-11-07T19:54:00.701Z,100187.41
2022-11-07T19:56:30.901Z,100184.31
2022-11-07T19:59:01.604Z,100181.34
2022-11-07T20:01:32.138Z,100173.53
2022-11-07T20:04:00.988Z,100177.06
2022-11-07T20:06:32.588Z,100166.63
2022-11-07T20:09:00.626Z,100177.66
2022-11-07T20:11:28.743Z,100171.25
2022-11-07T20:14:01.900Z,100167.59
2022-11-07T20:16:32.729Z,100158.78
2022-11-07T20:19:00.934Z,100158.34
2022-11-07T20:21:29.219Z,100144.81
2022-11-07T20:23:59.601Z,100140.91
2022-11-07T20:26:30.251Z,100140.34
2022-11-07T20:28:58.699Z,100138.88
2022-11-07T20:31:29.551Z,100140.63
2022-11-07T20:34:02.076Z,100137.63
2022-11-07T20:36:31.373Z,100125.59
2022-11-07T20:39:00.400Z,100136.25
2022-11-07T20:41:28.268Z,100133.91
2022-11-07T20:44:05.718Z,100141.75
2022-11-07T20:46:34.710Z,100131.41
2022-11-07T20:49:04.142Z,100131.88
2022-11-07T20:51:32.277Z,100135.00
2022-11-07T20:53:59.875Z,100142.81
2022-11-07T20:56:28.461Z,100128.25
2022-11-07T20:58:58.114Z,100132.66
2022-11-07T21:01:36.761Z,100130.88
2022-11-07T21:04:22.761Z,100117.00
2022-11-07T21:06:50.326Z,100113.47
2022-11-07T21:09:17.860Z,100110.72
2022-11-07T21:11:48.280Z,100110.53
2022-11-07T21:14:15.863Z,100112.00
2022-11-07T21:16:44.343Z,100097.63
2022-11-07T21:19:15.677Z,100102.09
2022-11-07T21:21:43.441Z,100098.00
2022-11-07T21:24:10.934Z,100090.19
2022-11-07T21:26:41.755Z,100094.50
2022-11-07T21:29:11.830Z,100086.16
2022-11-07T21:31:40.382Z,100079.00
2022-11-07T21:34:11.637Z,100082.34
2022-11-07T21:36:39.144Z,100082.06
2022-11-07T21:39:10.027Z,100073.41
2022-11-07T21:41:38.335Z,100076.97
2022-11-07T21:44:05.891Z,100076.28
2022-11-07T21:46:36.316Z,100074.31
2022-11-07T21:49:05.338Z,100069.50
2022-11-07T21:51:34.714Z,100080.28
2022-11-07T21:54:03.908Z,100073.34
2022-11-07T21:56:37.995Z,100067.75
2022-11-07T21:59:08.659Z,100072.34
2022-11-07T22:01:38.216Z,100074.41
2022-11-07T22:04:10.150Z,100078.31
2022-11-07T22:06:44.142Z,100070.47
2022-11-07T22:09:16.914Z,100070.66
2022-11-07T22:11:44.730Z,100081.06
2022-11-07T22:14:17.948Z,100079.56
2022-11-07T22:16:46.450Z,100080.84
2022-11-07T22:19:16.798Z,100073.59
2022-11-07T22:21:44.699Z,100065.59
2022-11-07T22:24:12.336Z,100058.94
2022-11-07T22:26:39.987Z,100060.69
2022-11-07T22:29:07.466Z,100065.19
2022-11-07T22:31:36.395Z,100058.31
2022-11-07T22:34:03.939Z,100061.09
2022-11-07T22:36:31.520Z,100050.69
2022-11-07T22:38:59.179Z,100052.34
2022-11-07T22:41:30.210Z,100043.84
2022-11-07T22:43:58.238Z,100046.47
2022-11-07T22:46:29.215Z,100048.06
2022-11-07T22:48:58.029Z,100042.88
2022-11-07T22:51:31.385Z,100042.09
2022-11-07T22:54:02.234Z,100029.34
2022-11-07T22:56:30.291Z,100038.34
2022-11-07T22:58:58.034Z,100034.84
2022-11-07T23:01:29.939Z,100030.72
2022-11-07T23:03:58.043Z,100032.22
2022-11-07T23:06:26.696Z,100033.78
2022-11-07T23:08:57.144Z,100025.75
2022-11-07T23:14:19.869Z,100014.88
2022-11-07T23:16:50.114Z,100014.69
2022-11-07T23:19:19.811Z,100013.91
2022-11-07T23:21:47.380Z,100002.13
2022-11-07T23:24:14.911Z,100014.16
2022-11-07T23:26:42.596Z,100007.41
2022-11-07T23:29:16.199Z,100014.47
2022-11-07T23:31:46.919Z,100004.38
2022-11-07T23:34:15.042Z,100007.38
2022-11-07T23:36:44.620Z,100009.75
2022-11-07T23:39:19.332Z,100006.41
2022-11-07T23:41:47.298Z,99997.28
2022-11-07T23:44:15.400Z,99999.16
2022-11-07T23:47:02.797Z,100002.59
2022-11-07T23:49:49.144Z,100001.69
2022-11-07T23:52:17.535Z,100003.00
2022-11-07T23:55:03.643Z,99994.66
2022-11-07T23:57:55.761Z,99986.44
